Time;durP1;ratioP1;P1;durP2;ratioP2;P2;SDS_P1;SDS_P2;PMS_P1;PMS_P2;Temp;Humidity;BMP_temperature;BMP_pressure;BME280_temperature;BME280_humidity;BME280_pressure;Samples;Min_cycle;Max_cycle;Signal;HPM_P1;HPM_P2
2021/05/05 00:05:02;;;;;;;10.00;2.38;;;;;;;9.80;57.12;100291.47;5013364;28;20049;-65
2021/05/05 00:07:29;;;;;;;14.40;3.17;;;;;;;10.21;62.78;100289.19;5013422;28;20053;-67
2021/05/05 00:09:56;;;;;;;14.30;2.20;;;;;;;10.20;59.85;100299.38;5013172;28;20049;-70
2021/05/05 00:12:23;;;;;;;15.77;2.40;;;;;;;9.86;60.03;100290.19;5013709;28;20046;-69
2021/05/05 00:14:50;;;;;;;14.93;2.75;;;;;;;9.99;59.23;100297.50;5013260;28;20042;-70
2021/05/05 00:17:17;;;;;;;17.77;3.35;;;;;;;10.61;64.39;100298.94;5013552;28;20393;-68
2021/05/05 00:19:45;;;;;;;14.85;2.60;;;;;;;10.72;56.96;100299.44;5013084;28;20397;-67
2021/05/05 00:22:12;;;;;;;15.65;3.30;;;;;;;11.31;58.46;100291.06;4995625;28;20506;-72
2021/05/05 00:24:39;;;;;;;12.70;2.65;;;;;;;10.64;57.58;100301.03;5013097;28;20389;-72
2021/05/05 00:27:06;;;;;;;13.13;2.30;;;;;;;10.85;60.57;100295.69;5011120;28;20054;-69
2021/05/05 00:29:33;;;;;;;11.45;2.60;;;;;;;11.14;54.77;100296.63;5013206;28;20072;-71
2021/05/05 00:32:00;;;;;;;10.32;2.72;;;;;;;10.41;61.37;100301.53;5013063;28;20050;-71
2021/05/05 00:34:28;;;;;;;12.63;2.75;;;;;;;10.35;59.94;100298.13;5011526;28;20502;-71
2021/05/05 00:36:55;;;;;;;13.05;2.53;;;;;;;9.77;56.98;100298.44;5012359;28;20054;-69
2021/05/05 00:39:22;;;;;;;14.90;2.28;;;;;;;10.67;64.03;100299.59;5013266;28;20057;-70
2021/05/05 00:41:49;;;;;;;12.57;2.38;;;;;;;10.46;63.96;100299.41;5013065;28;20056;-71
2021/05/05 00:44:17;;;;;;;21.27;3.22;;;;;;;10.57;56.05;100295.22;5013229;28;20054;-70
2021/05/05 00:51:12;;;;;;;17.35;2.45;;;;;;;9.34;58.45;100291.13;5013028;28;20049;-70
2021/05/05 00:53:40;;;;;;;18.88;2.50;;;;;;;9.30;59.38;100299.19;5012834;28;20046;-71
2021/05/05 00:56:08;;;;;;;14.40;2.30;;;;;;;9.90;64.86;100288.44;5013267;28;20053;-72
2021/05/05 00:58:35;;;;;;;10.02;1.85;;;;;;;9.99;58.24;100292.81;5011713;28;20069;-72
2021/05/05 01:05:30;;;;;;;12.35;2.75;;;;;;;9.73;65.32;100293.88;5011189;28;20046;-64
2021/05/05 01:07:57;;;;;;;16.35;2.70;;;;;;;9.71;59.58;100285.94;5011636;28;20049;-72
2021/05/05 01:10:24;;;;;;;10.07;2.47;;;;;;;9.57;58.40;100290.72;5011355;28;20045;-68
2021/05/05 01:12:52;;;;;;;13.80;2.05;;;;;;;9.70;59.75;100294.50;5011070;28;20413;-68
2021/05/05 01:19:45;;;;;;;13.05;2.22;;;;;;;10.06;65.37;100289.59;5012091;28;20045;-65
2021/05/05 01:22:12;;;;;;;16.60;2.88;;;;;;;10.38;63.81;100291.97;5010412;28;20073;-67
2021/05/05 01:24:39;;;;;;;13.85;2.58;;;;;;;10.68;58.89;100291.00;5012602;28;20050;-67
2021/05/05 01:27:08;;;;;;;14.75;2.33;;;;;;;10.05;59.34;100291.56;5010786;28;20065;-63
2021/05/05 01:29:36;;;;;;;12.27;2.35;;;;;;;9.44;59.04;100288.09;5010938;28;20049;-67
2021/05/05 01:36:40;;;;;;;11.95;2.40;;;;;;;10.33;63.51;100294.06;5012542;28;20037;-67
2021/05/05 01:39:14;;;;;;;11.98;1.92;;;;;;;9.68;61.17;100303.06;5012113;28;20050;-69
2021/05/05 01:41:42;;;;;;;10.32;2.10;;;;;;;9.57;60.96;100298.97;5010333;28;20045;-64
2021/05/05 01:44:09;;;;;;;14.75;3.28;;;;;;;9.10;60.29;100299.69;5012799;28;20057;-70
2021/05/05 01:46:46;;;;;;;14.05;2.95;;;;;;;9.65;65.48;100298.22;5011161;28;20053;-67
2021/05/05 01:49:22;;;;;;;13.02;2.13;;;;;;;9.87;61.25;100311.88;5012466;28;20522;-68
2021/05/05 01:51:53;;;;;;;14.20;2.50;;;;;;;9.20;60.34;100307.69;5010580;28;20046;-67
2021/05/05 01:54:22;;;;;;;15.23;2.85;;;;;;;10.24;64.78;100296.78;5012373;28;20053;-67
2021/05/05 01:56:49;;;;;;;12.48;2.20;;;;;;;10.82;60.81;100302.69;5011021;28;20057;-69
2021/05/05 01:59:16;;;;;;;11.05;2.78;;;;;;;10.27;58.34;100298.91;5010308;28;20476;-69
2021/05/05 02:01:43;;;;;;;17.77;2.95;;;;;;;9.62;61.12;100300.78;5012124;28;20050;-69
2021/05/05 02:04:11;;;;;;;11.13;2.38;;;;;;;9.21;59.59;100312.06;4978136;28;20520;-70
2021/05/05 02:06:59;;;;;;;10.60;2.03;;;;;;;8.99;60.15;100306.59;5010665;28;20057;-71
2021/05/05 02:09:39;;;;;;;12.75;2.47;;;;;;;9.42;66.40;100307.66;5009916;28;20061;-70
2021/05/05 02:12:07;;;;;;;13.02;2.42;;;;;;;9.17;64.95;100311.03;5011742;28;20409;-70
2021/05/05 02:14:37;;;;;;;12.48;2.33;;;;;;;9.77;60.51;100303.94;5010736;28;20057;-72
2021/05/05 02:17:04;;;;;;;14.00;2.53;;;;;;;9.87;63.07;100309.13;5010680;28;20050;-64
2021/05/05 02:19:31;;;;;;;11.57;2.55;;;;;;;10.34;62.90;100303.94;5011732;28;20042;-66
2021/05/05 02:21:58;;;;;;;9.82;2.42;;;;;;;10.17;62.69;100305.53;5011778;28;20046;-68
2021/05/05 02:24:25;;;;;;;17.25;2.65;;;;;;;9.36;62.27;100297.13;5010405;28;20054;-69
2021/05/05 02:26:54;;;;;;;15.20;1.95;;;;;;;9.17;64.01;100308.31;5010107;28;20057;-70
2021/05/05 02:29:21;;;;;;;12.23;2.40;;;;;;;8.97;63.09;100297.84;5010514;28;20061;-69
2021/05/05 02:31:59;;;;;;;16.75;2.55;;;;;;;9.37;63.92;100307.78;5011989;28;20049;-67
2021/05/05 02:34:27;;;;;;;14.48;2.25;;;;;;;8.81;61.33;100308.38;5014245;28;20042;-71
2021/05/05 02:36:56;;;;;;;9.95;2.45;;;;;;;9.03;61.63;100308.38;5013789;28;20042;-72
2021/05/05 02:39:24;;;;;;;20.30;2.40;;;;;;;8.81;62.43;100302.06;5013802;28;20049;-71
2021/05/05 02:41:52;;;;;;;11.25;2.60;;;;;;;8.85;62.38;100317.63;4997779;28;20053;-69
2021/05/05 02:44:19;;;;;;;17.52;3.45;;;;;;;8.73;62.43;100316.56;5013719;28;20050;-71
2021/05/05 02:46:46;;;;;;;13.27;2.22;;;;;;;8.16;62.72;100326.31;5015449;28;20050;-71
2021/05/05 02:49:15;;;;;;;12.98;2.78;;;;;;;8.30;65.41;100318.91;4997592;28;20445;-72
2021/05/05 02:51:42;;;;;;;14.23;2.47;;;;;;;8.95;63.87;100314.63;5013963;28;20061;-71
2021/05/05 02:54:10;;;;;;;18.60;2.83;;;;;;;8.62;61.88;100318.72;5013888;28;20064;-72
2021/05/05 02:56:37;;;;;;;14.75;3.20;;;;;;;8.52;62.95;100326.38;5013224;28;20046;-71
2021/05/05 02:59:04;;;;;;;15.10;3.00;;;;;;;8.52;63.91;100320.91;5013730;28;20496;-73
2021/05/05 03:01:31;;;;;;;12.52;2.63;;;;;;;8.87;65.13;100320.84;5014810;28;20050;-71
2021/05/05 03:03:58;;;;;;;12.73;2.47;;;;;;;9.34;65.88;100329.59;5015374;28;20518;-72
2021/05/05 03:06:25;;;;;;;12.05;2.20;;;;;;;8.74;62.41;100323.66;5013782;28;20050;-69
2021/05/05 03:08:52;;;;;;;13.23;2.42;;;;;;;9.14;62.43;100328.16;5014556;28;20073;-69
2021/05/05 03:11:19;;;;;;;17.70;2.85;;;;;;;8.76;62.12;100325.00;5014854;28;20477;-67
2021/05/05 03:13:46;;;;;;;17.10;2.38;;;;;;;8.93;62.95;100314.13;5014396;28;20381;-65
2021/05/05 03:16:13;;;;;;;10.10;2.33;;;;;;;8.70;62.10;100325.44;5014756;28;20497;-67
2021/05/05 03:18:40;;;;;;;7.70;2.33;;;;;;;8.69;63.19;100326.53;5014619;28;20054;-65
2021/05/05 03:21:07;;;;;;;12.13;2.33;;;;;;;9.01;65.70;100334.56;5014226;28;20476;-70
2021/05/05 03:23:35;;;;;;;11.20;2.17;;;;;;;8.22;63.84;100338.81;5014484;28;20053;-66
2021/05/05 03:26:02;;;;;;;18.30;2.88;;;;;;;8.94;64.89;100345.94;5014914;28;20050;-69
2021/05/05 03:28:29;;;;;;;17.42;2.75;;;;;;;9.07;62.13;100349.78;5013419;28;20042;-68
2021/05/05 03:30:55;;;;;;;12.40;2.85;;;;;;;8.97;62.64;100339.03;5014901;28;20046;-67
2021/05/05 03:37:51;;;;;;;18.15;3.47;;;;;;;8.81;67.80;100354.25;5014293;28;20042;-70
2021/05/05 03:40:18;;;;;;;13.40;2.67;;;;;;;8.65;65.74;100359.28;5014483;28;20050;-66
2021/05/05 03:42:48;;;;;;;9.82;1.50;;;;;;;9.09;66.40;100356.59;5014457;28;20497;-68
2021/05/05 03:45:15;;;;;;;13.88;2.30;;;;;;;8.35;62.36;100354.47;5012370;28;20058;-66
2021/05/05 03:52:19;;;;;;;15.95;2.97;;;;;;;8.27;68.49;100368.91;5014564;28;20042;-70
2021/05/05 03:54:45;;;;;;;18.48;3.00;;;;;;;8.66;65.01;100365.59;5014284;28;20046;-70
2021/05/05 03:57:13;;;;;;;13.38;2.70;;;;;;;8.62;64.62;100372.81;5013202;28;20058;-69
2021/05/05 03:59:40;;;;;;;18.15;3.17;;;;;;;8.40;64.50;100370.84;5014381;28;20394;-70
2021/05/05 04:02:07;;;;;;;18.13;2.67;;;;;;;8.50;63.56;100372.53;4996124;28;20061;-73
2021/05/05 04:04:34;;;;;;;17.20;2.45;;;;;;;8.81;67.91;100377.03;5012671;28;20054;-71
2021/05/05 04:07:02;;;;;;;14.32;2.60;;;;;;;8.41;63.61;100371.63;4996440;28;20183;-70
2021/05/05 04:09:30;;;;;;;13.88;2.95;;;;;;;8.54;63.98;100381.78;5013619;28;20042;-68
2021/05/05 04:11:58;;;;;;;14.73;3.20;;;;;;;8.17;63.83;100382.00;5012755;28;20477;-70
2021/05/05 04:14:25;;;;;;;16.38;2.50;;;;;;;8.44;67.18;100380.06;5013112;28;20362;-69
2021/05/05 04:17:10;;;;;;;14.85;2.45;;;;;;;7.99;66.75;100378.25;5013544;28;20054;-72
2021/05/05 04:19:55;;;;;;;16.13;2.67;;;;;;;8.13;64.88;100378.22;5012625;28;20041;-70
2021/05/05 04:22:40;;;;;;;17.88;2.47;;;;;;;8.13;64.77;100373.56;5013104;28;20049;-70
2021/05/05 04:25:25;;;;;;;11.77;2.80;;;;;;;8.29;65.96;100374.91;5013622;28;20489;-69
2021/05/05 04:27:52;;;;;;;13.88;2.45;;;;;;;9.02;62.79;100380.13;5012464;28;20042;-66
2021/05/05 04:30:19;;;;;;;15.18;2.78;;;;;;;8.78;63.26;100388.66;5011613;28;20060;-68
2021/05/05 04:32:47;;;;;;;13.32;3.03;;;;;;;8.47;66.01;100390.44;5011974;28;20056;-64
2021/05/05 04:35:16;;;;;;;11.25;2.28;;;;;;;9.45;66.56;100385.94;5013463;28;20493;-68
2021/05/05 04:37:43;;;;;;;13.73;2.50;;;;;;;8.94;62.10;100389.13;5013137;28;20065;-65
2021/05/05 04:40:10;;;;;;;14.15;2.30;;;;;;;9.03;66.40;100406.47;5013266;28;20046;-64
2021/05/05 04:42:38;;;;;;;19.50;3.08;;;;;;;9.01;62.44;100409.50;5012824;28;20057;-66
2021/05/05 04:45:06;;;;;;;18.30;2.55;;;;;;;8.87;62.71;100411.50;5012719;28;20053;-67
2021/05/05 04:47:35;;;;;;;14.77;2.75;;;;;;;8.36;64.12;100410.16;5013030;28;20076;-73
2021/05/05 04:50:10;;;;;;;13.35;2.50;;;;;;;8.55;64.52;100425.41;5011921;28;20481;-69
2021/05/05 04:52:37;;;;;;;15.68;2.70;;;;;;;8.97;68.09;100421.44;5012691;28;20056;-65
2021/05/05 04:55:06;;;;;;;12.60;2.38;;;;;;;8.73;63.45;100429.13;5011813;28;20081;-65
2021/05/05 04:57:33;;;;;;;8.77;2.10;;;;;;;9.43;65.90;100432.97;5012987;28;20050;-68
2021/05/05 05:00:00;;;;;;;12.18;2.28;;;;;;;9.40;61.17;100439.09;4979338;28;20054;-65
2021/05/05 05:02:27;;;;;;;19.17;2.53;;;;;;;8.43;63.45;100444.31;5012566;28;20056;-66
2021/05/05 05:04:57;;;;;;;10.18;2.20;;;;;;;8.35;63.93;100449.72;5011357;28;20485;-64
2021/05/05 05:07:24;;;;;;;18.70;2.80;;;;;;;7.99;65.67;100457.78;5012713;28;20485;-65
2021/05/05 05:09:51;;;;;;;17.45;3.17;;;;;;;8.11;66.29;100460.84;5013111;28;20053;-64
2021/05/05 05:12:18;;;;;;;10.57;2.15;;;;;;;8.19;65.90;100462.06;5012781;28;20046;-66
2021/05/05 05:14:45;;;;;;;14.23;2.20;;;;;;;7.98;66.82;100464.38;5012956;28;20084;-65
2021/05/05 05:17:12;;;;;;;15.52;3.08;;;;;;;7.98;66.04;100476.16;5012603;28;20347;-71
2021/05/05 05:24:03;;;;;;;12.02;2.33;;;;;;;8.09;65.42;100485.00;5012258;28;20042;-69
2021/05/05 05:26:30;;;;;;;11.07;2.50;;;;;;;8.43;66.49;100490.97;5012468;28;20048;-70
2021/05/05 05:28:57;;;;;;;13.93;2.42;;;;;;;8.61;64.61;100484.56;5012836;28;20046;-69
2021/05/05 05:31:24;;;;;;;12.75;2.47;;;;;;;8.34;65.85;100483.75;5012581;28;20049;-71
2021/05/05 05:38:21;;;;;;;16.33;3.17;;;;;;;8.17;63.90;100491.72;5012225;28;20056;-71
2021/05/05 05:40:48;;;;;;;12.23;2.40;;;;;;;8.43;65.20;100504.72;5012705;28;20046;-72
2021/05/05 05:43:15;;;;;;;12.63;2.17;;;;;;;8.42;64.84;100499.53;5012308;28;20050;-73
2021/05/05 05:45:42;;;;;;;13.35;2.28;;;;;;;8.51;65.53;100497.66;5011747;28;20512;-69
2021/05/05 05:52:35;;;;;;;12.10;1.85;;;;;;;8.78;64.47;100508.66;5011627;28;20050;-67
2021/05/05 05:55:04;;;;;;;15.45;2.15;;;;;;;8.54;63.40;100510.81;5012251;28;20057;-64
2021/05/05 05:57:31;;;;;;;13.15;1.95;;;;;;;8.27;64.08;100519.00;5012192;28;20053;-65
2021/05/05 05:59:58;;;;;;;13.90;2.80;;;;;;;8.13;65.31;100518.97;5010953;28;20050;-64
2021/05/05 06:02:25;;;;;;;8.18;2.03;;;;;;;8.39;65.02;100522.06;5011785;28;20396;-69
2021/05/05 06:09:30;;;;;;;13.18;2.00;;;;;;;9.23;61.73;100526.06;5015637;28;20054;-65
2021/05/05 06:11:57;;;;;;;12.57;2.78;;;;;;;9.15;63.56;100538.63;5015728;28;20042;-70
2021/05/05 06:14:24;;;;;;;8.70;2.10;;;;;;;9.12;63.30;100530.19;5015872;28;20414;-72
2021/05/05 06:16:51;;;;;;;11.27;2.17;;;;;;;9.10;61.42;100545.03;5014291;28;20056;-72
2021/05/05 06:19:18;;;;;;;15.70;2.20;;;;;;;8.63;62.58;100545.47;5014454;28;20046;-73
2021/05/05 06:21:45;;;;;;;14.50;2.75;;;;;;;8.75;64.36;100548.53;5014599;28;20049;-72
2021/05/05 06:24:12;;;;;;;13.82;1.80;;;;;;;8.48;62.44;100556.75;5015764;28;20504;-66
2021/05/05 06:26:39;;;;;;;14.85;2.13;;;;;;;8.28;63.68;100565.34;5015637;28;20377;-75
2021/05/05 06:29:06;;;;;;;14.55;2.40;;;;;;;7.89;64.10;100573.13;5015804;28;20061;-70
2021/05/05 06:31:37;;;;;;;13.75;2.22;;;;;;;8.10;64.36;100568.94;5015493;28;20050;-70
2021/05/05 06:34:04;;;;;;;14.93;2.42;;;;;;;8.41;64.25;100575.56;5015374;28;20058;-75
2021/05/05 06:36:32;;;;;;;12.93;2.03;;;;;;;8.60;63.24;100568.03;5014882;28;20049;-74
2021/05/05 06:38:59;;;;;;;13.48;1.70;;;;;;;8.50;62.16;100573.75;5015250;28;20053;-74
2021/05/05 06:41:26;;;;;;;12.57;2.40;;;;;;;8.36;64.99;100575.66;5015517;28;20056;-76
2021/05/05 06:43:53;;;;;;;9.15;2.28;;;;;;;8.30;63.27;100573.31;5015426;28;20050;-71
2021/05/05 06:46:20;;;;;;;8.18;1.90;;;;;;;8.48;62.56;100572.41;5015047;28;20053;-71
2021/05/05 06:48:47;;;;;;;10.98;2.22;;;;;;;8.40;63.18;100575.84;5014074;28;20072;-68
2021/05/05 06:55:22;;;;;;;11.15;1.48;;;;;;;8.78;58.71;100575.38;5226537;23;20054;-64
2021/05/05 06:57:50;;;;;;;6.63;1.70;;;;;;;8.77;58.93;100578.44;4956807;28;20145;-64
2021/05/05 07:00:17;;;;;;;7.72;1.83;;;;;;;8.74;59.81;100581.78;4974101;28;20055;-66
2021/05/05 07:02:44;;;;;;;13.40;2.20;;;;;;;8.77;58.60;100598.47;4968163;28;20103;-66
2021/05/05 07:05:12;;;;;;;9.25;1.80;;;;;;;8.98;58.72;100601.63;4964822;28;20070;-68
2021/05/05 07:07:39;;;;;;;9.13;1.85;;;;;;;9.36;57.48;100607.72;4971349;28;20050;-65
2021/05/05 07:10:08;;;;;;;8.63;2.20;;;;;;;8.72;58.37;100614.22;4971863;28;20050;-69
2021/05/05 07:12:35;;;;;;;8.38;1.77;;;;;;;8.67;59.20;100620.63;4966517;28;20047;-63
2021/05/05 07:15:03;;;;;;;7.63;1.77;;;;;;;8.53;58.33;100608.81;4962649;28;20051;-64
2021/05/05 07:17:30;;;;;;;7.75;1.20;;;;;;;8.68;57.35;100622.25;4964430;28;20050;-69
2021/05/05 07:19:57;;;;;;;14.25;2.88;;;;;;;8.94;60.16;100614.34;4950852;29;20070;-65
2021/05/05 07:22:24;;;;;;;9.73;1.98;;;;;;;9.26;59.10;100614.22;4970427;28;20525;-67
2021/05/05 07:24:51;;;;;;;11.95;1.77;;;;;;;9.12;56.67;100616.16;4963381;28;20051;-68
2021/05/05 07:27:19;;;;;;;5.85;1.45;;;;;;;8.99;57.29;100622.50;4938098;28;20062;-66
2021/05/05 07:29:47;;;;;;;8.52;1.40;;;;;;;9.01;56.87;100626.53;4958713;28;20047;-67
2021/05/05 07:32:14;;;;;;;8.55;1.95;;;;;;;9.09;57.01;100622.28;4945328;28;20054;-67
2021/05/05 07:34:42;;;;;;;9.82;1.58;;;;;;;9.63;59.00;100624.13;4966654;28;20054;-63
2021/05/05 07:37:13;;;;;;;6.75;1.58;;;;;;;9.72;55.64;100612.09;4951124;28;20051;-64
2021/05/05 07:47:44;;;;;;;10.32;1.90;;;;;;;10.02;56.65;100610.56;4969204;28;20586;-64
2021/05/05 07:50:12;;;;;;;10.05;2.03;;;;;;;9.97;55.29;100616.19;4960171;28;20046;-65
2021/05/05 07:52:39;;;;;;;6.50;1.60;;;;;;;9.90;55.46;100613.84;4965479;28;20487;-67
2021/05/05 07:55:07;;;;;;;9.30;1.48;;;;;;;10.18;55.75;100620.91;4964839;28;20053;-67
2021/05/05 07:57:34;;;;;;;8.75;1.92;;;;;;;10.82;55.32;100615.94;4954719;28;20406;-69
2021/05/05 08:00:00;;;;;;;5.68;1.40;;;;;;;10.84;52.12;100609.00;4955218;28;20043;-69
2021/05/05 08:02:28;;;;;;;7.28;1.73;;;;;;;10.56;53.15;100613.06;4969837;28;20071;-68
2021/05/05 08:04:55;;;;;;;14.82;1.90;;;;;;;10.43;53.62;100621.38;4953827;28;20058;-69
2021/05/05 08:07:22;;;;;;;9.73;1.70;;;;;;;10.74;53.49;100617.53;4954966;28;20054;-71
2021/05/05 08:09:53;;;;;;;8.40;2.05;;;;;;;11.10;51.87;100620.94;4942832;28;20140;-64
2021/05/05 08:12:20;;;;;;;6.68;1.55;;;;;;;10.97;52.68;100635.63;4952007;28;20047;-69
2021/05/05 08:14:49;;;;;;;14.02;1.70;;;;;;;10.90;51.64;100618.72;4946736;28;20149;-65
2021/05/05 08:17:19;;;;;;;8.02;1.60;;;;;;;10.48;51.57;100633.09;4961282;28;20046;-64
2021/05/05 08:19:47;;;;;;;5.95;1.92;;;;;;;10.87;52.87;100624.06;4960834;28;20054;-65
2021/05/05 08:22:14;;;;;;;8.40;1.60;;;;;;;11.43;49.12;100631.56;4961167;28;20051;-66
2021/05/05 08:24:42;;;;;;;10.85;1.90;;;;;;;11.26;49.96;100633.13;4960980;28;20058;-67
2021/05/05 08:27:09;;;;;;;9.40;2.03;;;;;;;10.70;50.03;100624.81;4951825;28;20046;-65
2021/05/05 08:29:38;;;;;;;8.25;1.50;;;;;;;10.57;51.10;100646.91;4961094;28;20058;-65
2021/05/05 08:32:06;;;;;;;11.18;1.77;;;;;;;10.35;51.34;100641.44;4947849;28;20560;-64
2021/05/05 08:34:33;;;;;;;9.43;2.05;;;;;;;10.49;51.53;100643.00;4960096;28;20063;-66
2021/05/05 08:37:00;;;;;;;8.88;1.80;;;;;;;10.33;50.70;100646.44;4917251;28;20066;-67
2021/05/05 08:39:27;;;;;;;11.77;2.05;;;;;;;10.73;50.16;100654.47;4946604;28;20059;-66
2021/05/05 08:41:58;;;;;;;8.00;1.48;;;;;;;10.91;50.46;100636.88;4953478;28;20202;-65
2021/05/05 08:44:25;;;;;;;9.13;1.70;;;;;;;11.15;48.15;100642.84;4966745;28;20469;-67
2021/05/05 08:46:53;;;;;;;13.40;1.67;;;;;;;10.80;49.26;100667.78;4964960;28;20068;-66
2021/05/05 08:49:21;;;;;;;12.57;1.80;;;;;;;10.38;50.33;100660.88;4966402;28;20374;-65
2021/05/05 08:51:48;;;;;;;7.85;2.22;;;;;;;10.43;50.33;100669.03;4949173;28;20047;-65
2021/05/05 08:54:17;;;;;;;10.93;2.35;;;;;;;10.37;50.08;100670.28;4933450;28;20393;-64
2021/05/05 08:56:44;;;;;;;13.25;2.33;;;;;;;10.28;50.60;100665.84;4930311;28;20042;-66
2021/05/05 08:59:13;;;;;;;12.30;2.03;;;;;;;10.17;49.42;100668.00;4965206;28;20050;-67
2021/05/05 09:01:42;;;;;;;9.65;2.00;;;;;;;10.41;51.07;100671.25;4966592;28;20054;-67
2021/05/05 09:04:10;;;;;;;10.00;1.95;;;;;;;10.54;48.58;100664.91;4964060;28;20062;-75
2021/05/05 09:06:55;;;;;;;8.45;1.92;;;;;;;10.55;48.88;100666.50;4945219;28;20162;-67
2021/05/05 09:09:33;;;;;;;13.18;2.08;;;;;;;10.94;48.15;100663.00;4954750;28;20076;-66
2021/05/05 09:12:25;;;;;;;7.45;1.58;;;;;;;10.87;47.56;100665.41;4950587;28;20391;-68
2021/05/05 09:14:54;;;;;;;10.30;2.10;;;;;;;11.01;47.12;100683.47;4960905;28;20046;-69
2021/05/05 09:17:35;;;;;;;11.43;2.17;;;;;;;10.64;47.31;100680.31;4949267;28;20459;-68
2021/05/05 09:20:06;;;;;;;5.57;1.60;;;;;;;10.81;46.90;100675.72;4968673;28;20051;-65
2021/05/05 09:22:34;;;;;;;6.15;1.63;;;;;;;10.65;47.46;100682.75;4965582;28;20066;-64
2021/05/05 09:25:11;;;;;;;6.43;1.50;;;;;;;10.54;47.24;100667.66;4952814;28;20062;-66
2021/05/05 09:27:39;;;;;;;11.60;1.95;;;;;;;11.18;49.54;100672.50;4956105;28;20057;-65
2021/05/05 09:30:17;;;;;;;7.28;2.17;;;;;;;11.90;46.48;100664.63;4968492;28;20054;-64
2021/05/05 09:32:52;;;;;;;10.40;2.38;;;;;;;11.75;44.90;100667.03;4957684;28;20058;-67
2021/05/05 09:35:29;;;;;;;7.60;1.70;;;;;;;11.73;46.09;100663.78;4954706;28;20062;-66
2021/05/05 09:38:01;;;;;;;7.70;1.92;;;;;;;11.01;46.29;100680.72;4961962;28;20065;-64
2021/05/05 09:40:28;;;;;;;10.63;1.98;;;;;;;11.02;45.72;100673.25;4958318;28;20054;-66
2021/05/05 09:42:55;;;;;;;7.18;2.00;;;;;;;10.82;46.34;100673.81;4965207;28;20054;-64
2021/05/05 09:45:31;;;;;;;6.38;1.75;;;;;;;11.14;45.98;100676.25;4966397;28;20553;-65
2021/05/05 09:48:00;;;;;;;7.97;1.50;;;;;;;11.64;43.54;100683.09;4963904;28;20487;-65
2021/05/05 09:50:44;;;;;;;9.30;1.45;;;;;;;11.15;44.57;100675.09;4966717;28;20074;-65
2021/05/05 09:53:22;;;;;;;10.25;1.52;;;;;;;11.13;44.55;100682.88;4962096;28;20058;-68
2021/05/05 09:55:59;;;;;;;9.02;1.75;;;;;;;11.28;45.12;100679.66;4967974;28;20059;-68
2021/05/05 09:58:32;;;;;;;9.00;1.95;;;;;;;11.42;44.40;100679.59;4963618;28;20043;-63
2021/05/05 10:01:06;;;;;;;11.32;2.10;;;;;;;11.68;43.72;100691.53;4966101;28;20057;-68
2021/05/05 10:03:39;;;;;;;5.47;1.90;;;;;;;11.89;44.11;100700.81;4966549;28;20057;-65
2021/05/05 10:06:22;;;;;;;10.35;1.83;;;;;;;11.53;44.02;100700.19;4966832;28;20678;-64
2021/05/05 10:08:56;;;;;;;8.38;2.65;;;;;;;11.57;44.93;100704.78;4964860;28;20051;-67
2021/05/05 10:11:28;;;;;;;8.20;2.10;;;;;;;11.29;46.43;100715.22;4962165;28;20074;-66
2021/05/05 10:14:02;;;;;;;6.85;1.75;;;;;;;11.12;48.59;100723.41;4937137;28;20066;-67
2021/05/05 10:16:41;;;;;;;9.35;1.50;;;;;;;10.62;47.90;100721.97;4967207;28;20054;-67
2021/05/05 10:19:28;;;;;;;7.32;2.15;;;;;;;10.68;48.61;100725.41;4950845;28;20049;-68
2021/05/05 10:22:00;;;;;;;10.20;2.05;;;;;;;10.63;48.43;100714.53;4949109;28;20388;-67
2021/05/05 10:24:31;;;;;;;8.93;1.60;;;;;;;11.13;49.96;100726.97;4952485;28;20058;-67
2021/05/05 10:26:58;;;;;;;8.20;2.03;;;;;;;10.98;47.25;100725.44;4951604;28;20055;-65
2021/05/05 10:29:28;;;;;;;7.07;1.88;;;;;;;11.55;47.53;100720.00;4963468;28;20398;-64
2021/05/05 10:32:03;;;;;;;13.30;2.42;;;;;;;11.43;46.19;100720.63;4926227;28;20050;-65
2021/05/05 10:34:31;;;;;;;8.55;1.92;;;;;;;11.78;45.94;100721.56;4948006;28;20039;-64
2021/05/05 10:37:04;;;;;;;8.40;2.00;;;;;;;12.12;44.24;100718.84;4965331;28;20047;-65
2021/05/05 10:39:42;;;;;;;7.97;2.05;;;;;;;12.52;45.89;100719.53;4965253;28;20039;-66
2021/05/05 10:42:18;;;;;;;6.63;1.77;;;;;;;12.29;43.54;100705.88;4952884;28;20050;-68
2021/05/05 10:45:03;;;;;;;8.70;2.03;;;;;;;13.11;43.57;100699.28;4942307;28;20069;-65
2021/05/05 10:47:34;;;;;;;5.03;1.27;;;;;;;12.91;39.72;100711.00;4962737;28;20085;-66
2021/05/05 10:50:06;;;;;;;6.72;2.05;;;;;;;12.07;40.52;100694.16;4944018;28;20055;-66
2021/05/05 10:52:34;;;;;;;8.48;1.85;;;;;;;12.17;41.18;100707.66;4957307;28;20058;-64
2021/05/05 10:55:07;;;;;;;7.00;1.90;;;;;;;12.47;42.47;100695.63;4962087;28;20600;-69
2021/05/05 10:57:36;;;;;;;6.78;1.60;;;;;;;12.71;40.52;100703.41;4938573;28;20081;-69
2021/05/05 11:00:07;;;;;;;8.27;2.30;;;;;;;12.99;40.32;100710.19;4955566;28;20047;-67
2021/05/05 11:02:41;;;;;;;12.07;2.15;;;;;;;13.16;40.96;100705.41;4955850;28;20272;-67
2021/05/05 11:05:19;;;;;;;9.30;2.05;;;;;;;12.68;40.91;100717.88;4969392;28;20051;-66
2021/05/05 11:07:52;;;;;;;11.35;2.28;;;;;;;12.34;41.63;100714.00;4969457;28;20251;-67
2021/05/05 11:10:35;;;;;;;8.00;2.60;;;;;;;12.21;42.09;100723.25;4969206;28;20047;-67
2021/05/05 11:13:25;;;;;;;9.23;2.00;;;;;;;12.07;42.29;100719.84;4957621;28;20055;-66
2021/05/05 11:15:56;;;;;;;8.00;1.90;;;;;;;12.19;40.53;100735.75;4960067;28;20043;-67
2021/05/05 11:21:08;;;;;;;6.35;1.85;;;;;;;12.28;40.84;100739.34;4968534;28;20466;-68
2021/05/05 11:26:21;;;;;;;9.90;2.08;;;;;;;12.50;40.24;100738.38;4968724;28;20051;-65
2021/05/05 11:29:02;;;;;;;7.25;1.80;;;;;;;12.71;40.16;100726.31;4957622;28;20057;-66
2021/05/05 11:31:44;;;;;;;6.85;1.27;;;;;;;12.94;38.79;100736.03;4970122;28;20038;-67
2021/05/05 11:34:23;;;;;;;9.50;1.65;;;;;;;13.03;37.64;100744.34;4968359;28;20051;-63
2021/05/05 11:37:15;;;;;;;7.55;1.55;;;;;;;12.64;38.60;100727.97;4970230;28;20066;-69
2021/05/05 11:39:58;;;;;;;7.93;1.50;;;;;;;12.63;38.79;100753.97;4939350;28;20069;-67
2021/05/05 11:42:33;;;;;;;12.88;2.05;;;;;;;11.79;43.98;100751.59;4969842;28;20039;-67
2021/05/05 11:45:10;;;;;;;14.77;2.17;;;;;;;11.55;45.60;100770.47;4967417;28;20054;-68
2021/05/05 11:47:44;;;;;;;15.55;2.45;;;;;;;11.48;45.14;100775.66;4970200;28;20050;-66
2021/05/05 11:50:21;;;;;;;17.58;2.42;;;;;;;11.81;44.83;100754.84;4959304;28;20050;-69
2021/05/05 11:52:51;;;;;;;18.77;2.25;;;;;;;11.80;44.71;100746.91;4968707;28;20046;-66
2021/05/05 11:55:30;;;;;;;19.98;1.95;;;;;;;11.61;46.06;100749.09;4960931;28;20420;-66
2021/05/05 11:57:58;;;;;;;9.02;1.88;;;;;;;11.82;45.57;100752.94;4969548;28;20054;-64
2021/05/05 12:00:31;;;;;;;6.72;1.70;;;;;;;11.90;45.01;100735.56;4967735;28;20070;-67
2021/05/05 12:03:03;;;;;;;11.38;1.75;;;;;;;11.97;44.18;100739.47;4969680;28;20054;-65
2021/05/05 12:05:36;;;;;;;6.10;1.58;;;;;;;12.04;43.75;100734.28;4960326;28;20503;-66
2021/05/05 12:08:10;;;;;;;9.80;1.58;;;;;;;12.35;41.54;100732.22;4967137;28;20051;-65
2021/05/05 12:10:43;;;;;;;18.98;2.33;;;;;;;12.36;42.53;100725.53;4968712;28;20502;-67
2021/05/05 12:13:18;;;;;;;9.00;1.60;;;;;;;12.21;41.40;100739.00;4959742;28;20047;-66
2021/05/05 12:15:59;;;;;;;10.25;2.20;;;;;;;12.44;41.17;100729.44;4968855;28;20502;-66
2021/05/05 12:18:35;;;;;;;11.38;2.03;;;;;;;13.12;41.21;100723.00;4966482;28;20066;-67
2021/05/05 12:21:09;;;;;;;8.48;2.08;;;;;;;13.91;39.08;100718.44;4969699;28;20047;-66
2021/05/05 12:23:36;;;;;;;6.28;1.40;;;;;;;13.75;38.37;100716.56;4966260;28;20401;-69
2021/05/05 12:26:33;;;;;;;9.93;1.63;;;;;;;13.70;37.50;100720.34;4955338;28;20050;-67
2021/05/05 12:29:15;;;;;;;8.88;1.88;;;;;;;13.40;39.00;100718.69;4942755;28;20050;-68
2021/05/05 12:31:45;;;;;;;5.60;1.48;;;;;;;13.82;37.96;100728.75;4967125;28;20581;-68
2021/05/05 12:34:12;;;;;;;7.43;1.90;;;;;;;13.78;37.98;100725.00;4954801;28;20066;-66
2021/05/05 12:36:42;;;;;;;7.00;1.77;;;;;;;13.47;38.55;100736.41;4966995;28;20066;-66
2021/05/05 12:39:13;;;;;;;;;;;;;;;12.67;39.68;100741.13;4967215;28;20048;-66
2021/05/05 12:41:48;;;;;;;7.28;1.67;;;;;;;12.34;41.73;100735.31;4958195;28;20409;-65
2021/05/05 12:44:15;;;;;;;8.32;2.00;;;;;;;12.17;42.22;100741.59;4965207;28;20136;-66